createdAt,value
2022-10-01T00:02:03.129Z,47.70
2022-10-01T00:04:31.808Z,47.61
2022-10-01T00:07:03.118Z,47.85
2022-10-01T00:09:31.375Z,47.90
2022-10-01T00:11:59.790Z,47.87
2022-10-01T00:14:27.669Z,47.61
2022-10-01T00:16:55.237Z,47.86
2022-10-01T00:19:22.939Z,47.88
2022-10-01T00:21:51.650Z,47.62
2022-10-01T00:24:19.145Z,47.84
2022-10-01T00:26:48.100Z,47.73
2022-10-01T00:29:15.885Z,47.82
2022-10-01T00:31:43.499Z,47.53
2022-10-01T00:34:15.241Z,47.47
2022-10-01T00:36:42.546Z,47.93
2022-10-01T00:39:12.852Z,47.57
2022-10-01T00:41:40.536Z,47.52
2022-10-01T00:44:32.828Z,47.78
2022-10-01T00:47:08.410Z,48.30
2022-10-01T00:49:40.894Z,48.10
2022-10-01T00:52:13.857Z,47.85
2022-10-01T00:54:49.305Z,48.02
2022-10-01T00:57:21.911Z,48.04
2022-10-01T00:59:51.540Z,47.57
2022-10-01T01:02:18.831Z,48.01
2022-10-01T01:04:46.445Z,48.15
2022-10-01T01:07:14.776Z,48.27
2022-10-01T01:09:47.139Z,48.20
2022-10-01T01:12:30.507Z,48.19
2022-10-01T01:15:15.156Z,48.20
2022-10-01T01:17:54.717Z,48.17
2022-10-01T01:21:11.506Z,47.83
2022-10-01T01:24:32.200Z,48.17
2022-10-01T01:27:18.958Z,47.94
2022-10-01T01:30:00.803Z,48.05
2022-10-01T01:32:35.012Z,47.84
2022-10-01T01:35:08.002Z,48.14
2022-10-01T01:37:41.783Z,47.75
2022-10-01T01:40:13.878Z,47.84
2022-10-01T01:42:45.077Z,48.11
2022-10-01T01:45:19.812Z,48.17
2022-10-01T01:47:48.541Z,48.03
2022-10-01T01:50:17.857Z,48.16
2022-10-01T01:52:45.938Z,47.90
2022-10-01T01:55:14.119Z,48.24
2022-10-01T01:57:44.334Z,48.42
2022-10-01T02:00:16.106Z,48.91
2022-10-01T02:02:50.189Z,49.27
2022-10-01T02:05:23.307Z,49.62
2022-10-01T02:08:35.832Z,50.24
2022-10-01T02:11:19.782Z,51.25
2022-10-01T02:14:02.029Z,51.28
2022-10-01T02:16:46.011Z,51.83
2022-10-01T02:19:23.716Z,52.01
2022-10-01T02:22:00.376Z,51.96
2022-10-01T02:24:39.146Z,52.06
2022-10-01T02:27:13.623Z,52.32
2022-10-01T02:29:43.438Z,52.37
2022-10-01T02:32:15.931Z,52.50
2022-10-01T02:34:49.329Z,52.73
2022-10-01T02:37:21.375Z,52.90
2022-10-01T02:39:52.077Z,53.48
2022-10-01T02:42:22.134Z,53.68
2022-10-01T02:44:53.721Z,54.16
2022-10-01T02:47:34.141Z,54.52
2022-10-01T02:50:02.945Z,54.69
2022-10-01T02:52:40.400Z,55.24
2022-10-01T02:55:14.889Z,55.47
2022-10-01T02:57:43.156Z,55.56
2022-10-01T03:00:14.628Z,55.87
2022-10-01T03:02:43.418Z,56.13
2022-10-01T03:05:10.816Z,55.77
2022-10-01T03:07:39.985Z,56.63
2022-10-01T03:10:09.701Z,56.50
2022-10-01T03:12:38.006Z,56.79
2022-10-01T03:15:07.123Z,57.11
2022-10-01T03:17:36.115Z,58.05
2022-10-01T03:20:06.831Z,58.56
2022-10-01T03:22:34.791Z,58.35
2022-10-01T03:25:02.155Z,58.69
2022-10-01T03:27:29.529Z,59.30
2022-10-01T03:29:56.950Z,58.72
2022-10-01T03:32:24.223Z,59.07
2022-10-01T03:34:51.469Z,59.94
2022-10-01T03:37:20.076Z,60.39
2022-10-01T03:39:47.547Z,60.82
2022-10-01T03:42:16.666Z,60.98
2022-10-01T03:44:44.201Z,61.62
2022-10-01T03:47:11.862Z,61.77
2022-10-01T03:49:39.189Z,62.75
2022-10-01T03:52:06.762Z,62.70
2022-10-01T03:54:35.434Z,63.45
2022-10-01T03:57:02.718Z,63.97
2022-10-01T03:59:29.992Z,64.47
2022-10-01T04:01:57.389Z,64.75
2022-10-01T04:04:24.792Z,65.14
2022-10-01T04:06:52.103Z,65.33
2022-10-01T04:09:19.346Z,65.26
2022-10-01T04:11:48.257Z,65.46
2022-10-01T04:14:15.529Z,65.79
2022-10-01T04:16:43.423Z,66.17
2022-10-01T04:19:10.701Z,66.35
2022-10-01T04:21:39.067Z,66.46
2022-10-01T04:24:06.831Z,66.76
2022-10-01T04:26:34.232Z,67.33
2022-10-01T04:29:02.836Z,68.11
2022-10-01T04:31:35.074Z,68.10
2022-10-01T04:34:03.724Z,68.45
2022-10-01T04:36:31.182Z,69.09
2022-10-01T04:39:02.119Z,68.72
2022-10-01T04:41:31.140Z,69.15
2022-10-01T04:43:59.818Z,69.39
2022-10-01T04:46:30.073Z,69.52
2022-10-01T04:48:57.709Z,69.07
2022-10-01T04:51:25.403Z,69.26
2022-10-01T04:53:52.734Z,69.18
2022-10-01T04:56:19.990Z,69.54
2022-10-01T04:58:48.251Z,69.64
2022-10-01T05:01:15.572Z,69.24
2022-10-01T05:03:44.603Z,69.16
2022-10-01T05:06:11.829Z,69.37
2022-10-01T05:08:39.178Z,69.07
2022-10-01T05:11:06.668Z,68.60
2022-10-01T05:13:33.977Z,68.32
2022-10-01T05:16:03.755Z,68.29
2022-10-01T05:18:31.736Z,68.45
2022-10-01T05:21:05.570Z,68.13
2022-10-01T05:23:33.294Z,67.86
2022-10-01T05:26:00.900Z,67.44
2022-10-01T05:28:28.252Z,67.34
2022-10-01T05:30:59.389Z,67.26
2022-10-01T05:33:27.036Z,67.26
2022-10-01T05:35:54.343Z,66.81
2022-10-01T05:38:23.346Z,66.71
2022-10-01T05:40:50.575Z,66.45
2022-10-01T05:43:18.699Z,66.35
2022-10-01T05:45:46.026Z,66.10
2022-10-01T05:48:13.423Z,66.10
2022-10-01T05:50:42.322Z,66.01
2022-10-01T05:53:12.111Z,66.07
2022-10-01T05:55:40.840Z,66.19
2022-10-01T05:58:11.775Z,66.22
2022-10-01T06:00:41.703Z,66.37
2022-10-01T06:03:13.088Z,66.58
2022-10-01T06:05:40.628Z,66.48
2022-10-01T06:08:11.790Z,66.50
2022-10-01T06:10:41.054Z,66.73
2022-10-01T06:13:08.469Z,66.95
2022-10-01T06:15:38.956Z,66.70
2022-10-01T06:18:08.752Z,67.20
2022-10-01T06:20:36.628Z,66.98
2022-10-01T06:23:11.341Z,66.82
2022-10-01T06:25:41.951Z,67.31
2022-10-01T06:28:12.679Z,67.92
2022-10-01T06:30:40.430Z,68.10
2022-10-01T06:33:10.872Z,68.15
2022-10-01T06:35:43.211Z,68.24
2022-10-01T06:38:11.428Z,68.24
2022-10-01T06:40:40.833Z,68.23
2022-10-01T06:43:09.194Z,68.60
2022-10-01T06:45:40.008Z,68.45
2022-10-01T06:48:09.783Z,68.48
2022-10-01T06:50:37.031Z,68.82
2022-10-01T06:53:04.989Z,68.80
2022-10-01T06:55:36.376Z,68.52
2022-10-01T06:58:08.208Z,68.79
2022-10-01T07:00:39.041Z,68.60
2022-10-01T07:03:11.076Z,68.42
2022-10-01T07:05:38.967Z,68.84
2022-10-01T07:08:07.346Z,69.11
2022-10-01T07:10:35.423Z,68.69
2022-10-01T07:13:09.801Z,68.42
2022-10-01T07:15:38.043Z,68.19
2022-10-01T07:18:06.320Z,68.22
2022-10-01T07:20:36.000Z,68.08
2022-10-01T07:23:03.524Z,68.00
2022-10-01T07:25:31.313Z,68.15
2022-10-01T07:28:02.207Z,68.10
2022-10-01T07:30:32.829Z,68.25
2022-10-01T07:33:00.148Z,68.10
2022-10-01T07:35:28.497Z,67.75
2022-10-01T07:37:55.715Z,67.64
2022-10-01T07:40:23.210Z,67.43
2022-10-01T07:42:56.338Z,67.58
2022-10-01T07:45:25.056Z,67.74
2022-10-01T07:47:55.040Z,68.55
2022-10-01T07:50:23.418Z,68.56
2022-10-01T07:52:54.316Z,68.25
2022-10-01T07:55:22.588Z,68.10
2022-10-01T07:57:53.100Z,67.74
2022-10-01T08:00:21.948Z,67.81
2022-10-01T08:02:50.751Z,67.17
2022-10-01T08:05:21.766Z,67.42
2022-10-01T08:07:50.922Z,67.03
2022-10-01T08:10:20.555Z,67.09
2022-10-01T08:12:47.984Z,66.83
2022-10-01T08:15:18.049Z,66.84
2022-10-01T08:17:45.632Z,66.84
2022-10-01T08:20:15.377Z,66.54
2022-10-01T08:22:44.047Z,66.32
2022-10-01T08:25:11.414Z,65.89
2022-10-01T08:27:38.851Z,66.33
2022-10-01T08:30:07.990Z,65.82
2022-10-01T08:32:35.262Z,65.92
2022-10-01T08:35:04.260Z,65.73
2022-10-01T08:37:31.554Z,65.27
2022-10-01T08:40:00.476Z,65.38
2022-10-01T08:42:54.033Z,65.41
2022-10-01T08:45:28.421Z,65.35
2022-10-01T08:48:05.011Z,65.14
2022-10-01T08:50:44.592Z,65.10
2022-10-01T08:53:24.114Z,65.08
2022-10-01T08:55:56.150Z,65.14
2022-10-01T08:58:35.320Z,65.27
2022-10-01T09:01:03.000Z,64.92
2022-10-01T09:03:32.524Z,64.76
2022-10-01T09:06:18.042Z,64.92
2022-10-01T09:09:06.649Z,64.72
2022-10-01T09:12:04.318Z,64.62
2022-10-01T09:15:08.809Z,64.86
2022-10-01T09:18:03.590Z,63.60
2022-10-01T09:20:38.311Z,64.36
2022-10-01T09:23:23.093Z,63.98
2022-10-01T09:25:51.897Z,63.95
2022-10-01T09:28:24.914Z,63.73
2022-10-01T09:31:03.950Z,62.43
2022-10-01T09:33:36.218Z,62.65
2022-10-01T09:36:18.229Z,61.60
2022-10-01T09:38:54.987Z,61.69
2022-10-01T09:41:23.194Z,61.81
2022-10-01T09:43:51.996Z,60.74
2022-10-01T09:46:20.157Z,58.98
2022-10-01T09:48:57.489Z,58.28
2022-10-01T09:51:36.847Z,59.04
2022-10-01T09:54:19.262Z,54.42
2022-10-01T09:56:54.821Z,54.86
2022-10-01T09:59:31.709Z,51.71
2022-10-01T10:02:02.246Z,51.99
2022-10-01T10:04:30.091Z,50.69
2022-10-01T10:07:03.028Z,51.61
2022-10-01T10:09:33.004Z,51.45
2022-10-01T10:12:01.932Z,52.63
2022-10-01T10:14:35.369Z,51.79
2022-10-01T10:17:11.173Z,52.37
2022-10-01T10:19:40.416Z,52.53
2022-10-01T10:22:23.207Z,50.72
2022-10-01T10:24:52.555Z,51.84
2022-10-01T10:27:26.795Z,50.17
2022-10-01T10:30:13.538Z,50.96
2022-10-01T10:32:43.001Z,50.80
2022-10-01T10:35:17.352Z,51.41
2022-10-01T10:37:49.699Z,51.01
2022-10-01T10:40:22.765Z,51.20
2022-10-01T10:42:56.088Z,51.24
2022-10-01T10:45:33.657Z,51.18
2022-10-01T10:48:04.654Z,50.51
2022-10-01T10:50:37.214Z,51.01
2022-10-01T10:53:22.625Z,50.72
2022-10-01T10:56:02.377Z,50.83
2022-10-01T10:58:34.193Z,49.82
2022-10-01T11:01:10.364Z,48.77
2022-10-01T11:03:46.396Z,50.20
2022-10-01T11:06:18.037Z,50.54
2022-10-01T11:08:57.260Z,51.38
2022-10-01T11:11:55.180Z,51.46
2022-10-01T11:14:47.864Z,50.43
2022-10-01T11:17:43.757Z,50.17
2022-10-01T11:20:33.661Z,49.62
2022-10-01T11:23:37.648Z,49.22
2022-10-01T11:26:24.512Z,49.42
2022-10-01T11:29:12.205Z,49.45
2022-10-01T11:31:52.806Z,49.26
2022-10-01T11:35:04.641Z,49.72
2022-10-01T11:37:53.426Z,49.78
2022-10-01T11:40:27.299Z,48.84
2022-10-01T11:43:05.287Z,48.99
2022-10-01T11:45:42.340Z,49.49
2022-10-01T11:48:19.293Z,48.48
2022-10-01T11:51:05.781Z,48.33
2022-10-01T11:53:45.387Z,48.82
2022-10-01T11:56:38.257Z,47.84
2022-10-01T11:59:13.732Z,47.67
2022-10-01T12:01:47.775Z,47.86
2022-10-01T12:04:32.235Z,47.16
2022-10-01T12:07:13.696Z,47.86
2022-10-01T12:09:58.242Z,48.50
2022-10-01T12:12:30.080Z,49.01
2022-10-01T12:15:09.366Z,48.11
2022-10-01T12:17:45.566Z,47.02
2022-10-01T12:20:25.017Z,46.90
2022-10-01T12:22:56.367Z,46.97
2022-10-01T12:25:36.111Z,46.31
2022-10-01T12:28:12.521Z,46.98
2022-10-01T12:30:49.326Z,47.85
2022-10-01T12:33:56.341Z,47.52
2022-10-01T12:36:38.583Z,48.49
2022-10-01T12:39:34.225Z,48.89
2022-10-01T12:42:25.501Z,49.35
2022-10-01T12:45:05.781Z,48.60
2022-10-01T12:47:55.816Z,48.09
2022-10-01T12:50:39.896Z,48.56
2022-10-01T12:53:30.055Z,49.20
2022-10-01T12:56:17.390Z,49.94
2022-10-01T12:59:09.530Z,50.14
2022-10-01T13:01:56.885Z,50.55
2022-10-01T13:04:56.594Z,50.37
2022-10-01T13:07:49.131Z,50.53
2022-10-01T13:10:46.103Z,50.12
2022-10-01T13:13:21.548Z,50.01
2022-10-01T13:15:55.401Z,50.48
2022-10-01T13:18:39.908Z,50.42
2022-10-01T13:21:19.233Z,49.79
2022-10-01T13:23:53.503Z,49.93
2022-10-01T13:26:33.078Z,49.97
2022-10-01T13:29:41.751Z,50.26
2022-10-01T13:32:29.569Z,50.01
2022-10-01T13:34:59.614Z,49.55
2022-10-01T13:37:37.558Z,48.39
2022-10-01T13:40:25.580Z,47.22
2022-10-01T13:42:57.277Z,44.76
2022-10-01T13:45:39.344Z,43.33
2022-10-01T13:48:16.939Z,42.74
2022-10-01T13:50:58.288Z,41.48
2022-10-01T13:53:28.976Z,39.67
2022-10-01T13:55:58.658Z,39.58
2022-10-01T13:58:36.384Z,38.73
2022-10-01T14:01:27.876Z,38.77
2022-10-01T14:04:05.541Z,38.95
2022-10-01T14:06:44.211Z,38.37
2022-10-01T14:09:19.353Z,38.80
2022-10-01T14:12:10.843Z,38.27
2022-10-01T14:15:00.862Z,39.58
2022-10-01T14:17:33.473Z,40.29
2022-10-01T14:20:02.489Z,41.02
2022-10-01T14:22:52.652Z,41.96
2022-10-01T14:25:39.108Z,43.17
2022-10-01T14:28:27.763Z,43.43
2022-10-01T14:31:07.029Z,43.95
2022-10-01T14:34:13.119Z,44.51
2022-10-01T14:36:45.291Z,45.05
2022-10-01T14:39:16.695Z,45.38
2022-10-01T14:41:45.581Z,45.74
2022-10-01T14:44:23.008Z,46.01
2022-10-01T14:46:51.475Z,46.20
2022-10-01T14:49:27.064Z,46.90
2022-10-01T14:52:00.761Z,46.51
2022-10-01T14:54:31.226Z,46.84
2022-10-01T14:56:59.670Z,46.83
2022-10-01T14:59:35.489Z,46.73
2022-10-01T15:02:17.349Z,46.79
2022-10-01T15:04:47.820Z,46.89
2022-10-01T15:07:17.140Z,47.03
2022-10-01T15:09:45.527Z,46.43
2022-10-01T15:12:15.800Z,47.01
2022-10-01T15:14:44.896Z,46.81
2022-10-01T15:17:21.331Z,46.53
2022-10-01T15:19:54.876Z,46.92
2022-10-01T15:22:27.361Z,46.18
2022-10-01T15:24:59.616Z,45.38
2022-10-01T15:27:27.642Z,45.17
2022-10-01T15:29:58.819Z,44.98
2022-10-01T15:32:28.192Z,44.97
2022-10-01T15:35:01.093Z,45.08
2022-10-01T15:37:34.815Z,44.64
2022-10-01T15:40:05.954Z,44.98
2022-10-01T15:42:35.337Z,45.38
2022-10-01T15:45:25.510Z,45.50
2022-10-01T15:47:56.831Z,45.24
2022-10-01T15:50:29.958Z,45.58
2022-10-01T15:53:14.123Z,45.61
2022-10-01T15:55:46.133Z,46.02
2022-10-01T15:58:20.011Z,46.34
2022-10-01T16:01:00.626Z,46.15
2022-10-01T16:03:32.978Z,46.34
2022-10-01T16:06:04.190Z,46.82
2022-10-01T16:08:39.317Z,46.79
2022-10-01T16:11:19.288Z,47.28
2022-10-01T16:13:49.040Z,47.16
2022-10-01T16:16:31.095Z,47.31
2022-10-01T16:20:04.500Z,47.70
2022-10-01T16:22:35.251Z,47.95
2022-10-01T16:25:07.433Z,48.04
2022-10-01T16:27:45.278Z,48.33
2022-10-01T16:30:21.627Z,48.77
2022-10-01T16:32:49.687Z,48.22
2022-10-01T16:35:21.102Z,48.69
2022-10-01T16:37:53.374Z,48.45
2022-10-01T16:40:24.056Z,48.08
2022-10-01T16:42:52.790Z,48.59
2022-10-01T16:45:24.609Z,48.38
2022-10-01T16:47:53.247Z,48.35
2022-10-01T16:50:22.981Z,48.31
2022-10-01T16:52:55.618Z,48.99
2022-10-01T16:55:26.553Z,48.79
2022-10-01T16:57:55.256Z,48.97
2022-10-01T17:00:25.734Z,49.61
2022-10-01T17:02:53.814Z,49.64
2022-10-01T17:05:25.223Z,49.67
2022-10-01T17:07:54.739Z,49.65
2022-10-01T17:10:24.134Z,50.25
2022-10-01T17:12:51.585Z,49.80
2022-10-01T17:15:23.168Z,50.10
2022-10-01T17:17:50.503Z,50.03
2022-10-01T17:20:18.204Z,50.39
2022-10-01T17:22:46.196Z,50.14
2022-10-01T17:25:18.952Z,50.33
2022-10-01T17:27:47.321Z,50.49
2022-10-01T17:30:15.791Z,50.35
2022-10-01T17:32:43.421Z,50.60
2022-10-01T17:35:12.465Z,50.36
2022-10-01T17:37:40.747Z,50.81
2022-10-01T17:40:10.541Z,50.52
2022-10-01T17:42:39.556Z,50.69
2022-10-01T17:45:11.021Z,50.71
2022-10-01T17:47:43.824Z,50.47
2022-10-01T17:50:11.380Z,50.80
2022-10-01T17:52:38.897Z,50.79
2022-10-01T17:55:07.565Z,51.01
2022-10-01T17:57:35.148Z,50.66
2022-10-01T18:00:05.773Z,50.73
2022-10-01T18:02:42.063Z,50.85
2022-10-01T18:05:12.428Z,50.94
2022-10-01T18:07:41.006Z,51.12
2022-10-01T18:10:12.786Z,51.07
2022-10-01T18:12:40.343Z,51.37
2022-10-01T18:15:10.565Z,51.60
2022-10-01T18:20:25.952Z,51.65
2022-10-01T18:22:53.695Z,52.02
2022-10-01T18:25:20.934Z,51.97
2022-10-01T18:27:50.146Z,51.85
2022-10-01T18:30:20.225Z,51.86
2022-10-01T18:32:56.718Z,51.93
2022-10-01T18:35:31.469Z,51.88
2022-10-01T18:38:04.856Z,52.40
2022-10-01T18:40:39.988Z,52.75
2022-10-01T18:43:13.906Z,52.74
2022-10-01T18:46:09.555Z,53.05
2022-10-01T18:49:06.149Z,53.29
2022-10-01T18:51:52.400Z,53.21
2022-10-01T18:54:52.094Z,53.43
2022-10-01T18:57:42.002Z,53.32
2022-10-01T19:00:12.693Z,53.58
2022-10-01T19:03:21.481Z,53.57
2022-10-01T19:06:22.880Z,53.65
2022-10-01T19:09:21.867Z,53.81
2022-10-01T19:12:04.632Z,54.25
2022-10-01T19:14:55.860Z,53.77
2022-10-01T19:17:55.827Z,54.04
2022-10-01T19:20:54.293Z,54.46
2022-10-01T19:23:53.234Z,54.63
2022-10-01T19:26:31.071Z,54.71
2022-10-01T19:29:23.080Z,54.65
2022-10-01T19:31:57.018Z,54.90
2022-10-01T19:34:32.105Z,54.88
2022-10-01T19:37:10.218Z,55.15
2022-10-01T19:39:41.735Z,55.24
2022-10-01T19:42:17.967Z,55.09
2022-10-01T19:44:57.527Z,55.39
2022-10-01T19:47:41.005Z,55.55
2022-10-01T19:50:20.499Z,55.59
2022-10-01T19:52:53.540Z,55.57
2022-10-01T19:55:24.358Z,55.69
2022-10-01T19:57:52.702Z,55.54
2022-10-01T20:00:23.045Z,55.65
2022-10-01T20:03:00.829Z,55.67
2022-10-01T20:05:32.208Z,55.39
2022-10-01T20:08:12.589Z,55.89
2022-10-01T20:10:45.273Z,55.83
2022-10-01T20:13:32.964Z,56.16
2022-10-01T20:16:18.151Z,56.30
2022-10-01T20:18:57.812Z,56.24
2022-10-01T20:21:43.589Z,56.19
2022-10-01T20:24:33.055Z,56.33
2022-10-01T20:27:16.538Z,56.16
2022-10-01T20:29:52.420Z,56.18
2022-10-01T20:32:28.589Z,56.46
2022-10-01T20:35:12.003Z,56.34
2022-10-01T20:37:57.525Z,56.46
2022-10-01T20:40:32.849Z,56.31
2022-10-01T20:43:07.108Z,56.47
2022-10-01T20:45:35.754Z,56.59
2022-10-01T20:48:11.880Z,56.50
2022-10-01T20:50:44.909Z,56.47
2022-10-01T20:53:31.935Z,56.51
2022-10-01T20:56:12.224Z,56.76
2022-10-01T20:58:46.170Z,56.40
2022-10-01T21:01:20.552Z,56.53
2022-10-01T21:03:56.543Z,56.58
2022-10-01T21:06:33.394Z,56.62
2022-10-01T21:09:15.031Z,56.49
2022-10-01T21:11:49.850Z,56.39
2022-10-01T21:14:27.605Z,56.55
2022-10-01T21:17:29.424Z,56.86
2022-10-01T21:20:16.706Z,56.92
2022-10-01T21:23:05.193Z,57.13
2022-10-01T21:25:53.998Z,57.12
2022-10-01T21:28:55.166Z,57.25
2022-10-01T21:31:41.626Z,57.28
2022-10-01T21:34:18.470Z,57.23
2022-10-01T21:37:01.290Z,57.19
2022-10-01T21:39:35.706Z,57.14
2022-10-01T21:42:16.359Z,57.29
2022-10-01T21:45:22.891Z,57.28
2022-10-01T21:48:13.460Z,57.16
2022-10-01T21:50:55.604Z,57.10
2022-10-01T21:54:00.921Z,57.32
2022-10-01T21:56:50.300Z,56.91
2022-10-01T21:59:40.669Z,57.00
2022-10-01T22:02:30.324Z,57.05
2022-10-01T22:05:09.444Z,56.67
2022-10-01T22:07:48.244Z,56.71
2022-10-01T22:10:23.223Z,56.46
2022-10-01T22:12:58.644Z,56.52
2022-10-01T22:15:32.250Z,56.63
2022-10-01T22:18:06.166Z,56.55
2022-10-01T22:20:35.569Z,56.59
2022-10-01T22:23:09.569Z,56.69
2022-10-01T22:25:46.687Z,56.72
2022-10-01T22:28:21.371Z,56.62
2022-10-01T22:30:53.957Z,56.59
2022-10-01T22:33:31.117Z,56.54
2022-10-01T22:36:06.655Z,56.78
2022-10-01T22:38:42.358Z,56.64
2022-10-01T22:41:19.437Z,56.79
2022-10-01T22:43:46.779Z,56.90
2022-10-01T22:46:46.783Z,57.26
2022-10-01T22:49:38.006Z,57.00
2022-10-01T22:52:25.220Z,57.11
2022-10-01T22:55:10.290Z,56.95
2022-10-01T22:58:13.016Z,56.93
2022-10-01T23:00:53.672Z,56.97
2022-10-01T23:03:37.640Z,57.10
2022-10-01T23:06:15.828Z,56.87
2022-10-01T23:08:50.485Z,56.98
2022-10-01T23:11:27.005Z,57.02
2022-10-01T23:14:09.082Z,57.09
2022-10-01T23:16:50.635Z,57.25
2022-10-01T23:19:42.234Z,57.39
2022-10-01T23:22:24.773Z,57.56
2022-10-01T23:25:13.980Z,57.70
2022-10-01T23:28:03.792Z,57.37
2022-10-01T23:30:46.810Z,57.40
2022-10-01T23:33:37.918Z,57.15
2022-10-01T23:36:24.229Z,56.96
2022-10-01T23:39:40.949Z,56.89
2022-10-01T23:42:27.888Z,56.97
2022-10-01T23:45:14.255Z,56.98
2022-10-01T23:47:54.233Z,56.98
2022-10-01T23:50:30.297Z,56.74
2022-10-01T23:53:09.658Z,56.53
2022-10-01T23:56:07.775Z,56.38
2022-10-01T23:58:46.356Z,56.45
